sensor_id;sensor_type;location;lat;lon;timestamp;P1;durP1;ratioP1;P2;durP2;ratioP2
75928;SDS011;64606;44.062;2.986;2023-11-22T00:02:06;1.13;;;0.65;;
75928;SDS011;64606;44.062;2.986;2023-11-22T00:04:32;2.90;;;0.88;;
75928;SDS011;64606;44.062;2.986;2023-11-22T00:06:58;2.15;;;0.52;;
75928;SDS011;64606;44.062;2.986;2023-11-22T00:09:24;1.05;;;0.60;;
75928;SDS011;64606;44.062;2.986;2023-11-22T00:11:50;1.85;;;0.70;;
75928;SDS011;64606;44.062;2.986;2023-11-22T00:14:16;1.42;;;0.60;;
75928;SDS011;64606;44.062;2.986;2023-11-22T00:16:43;1.48;;;0.60;;
75928;SDS011;64606;44.062;2.986;2023-11-22T00:19:09;1.50;;;0.70;;
75928;SDS011;64606;44.062;2.986;2023-11-22T00:21:35;3.17;;;0.90;;
75928;SDS011;64606;44.062;2.986;2023-11-22T00:24:01;1.25;;;0.60;;
75928;SDS011;64606;44.062;2.986;2023-11-22T00:26:28;3.30;;;0.80;;
75928;SDS011;64606;44.062;2.986;2023-11-22T00:28:54;1.92;;;0.70;;
75928;SDS011;64606;44.062;2.986;2023-11-22T00:31:20;1.35;;;0.73;;
75928;SDS011;64606;44.062;2.986;2023-11-22T00:33:46;2.25;;;0.65;;
75928;SDS011;64606;44.062;2.986;2023-11-22T00:36:12;1.15;;;0.60;;
75928;SDS011;64606;44.062;2.986;2023-11-22T00:38:57;1.00;;;0.60;;
75928;SDS011;64606;44.062;2.986;2023-11-22T00:41:23;1.52;;;0.70;;
75928;SDS011;64606;44.062;2.986;2023-11-22T00:43:49;3.95;;;0.63;;
75928;SDS011;64606;44.062;2.986;2023-11-22T00:46:15;1.23;;;0.60;;
75928;SDS011;64606;44.062;2.986;2023-11-22T00:48:41;1.13;;;0.70;;
75928;SDS011;64606;44.062;2.986;2023-11-22T00:51:08;1.88;;;0.80;;
75928;SDS011;64606;44.062;2.986;2023-11-22T00:53:35;1.70;;;0.50;;
75928;SDS011;64606;44.062;2.986;2023-11-22T00:56:02;1.30;;;0.50;;
75928;SDS011;64606;44.062;2.986;2023-11-22T00:58:28;1.05;;;0.50;;
75928;SDS011;64606;44.062;2.986;2023-11-22T01:00:55;0.98;;;0.50;;
75928;SDS011;64606;44.062;2.986;2023-11-22T01:03:21;1.65;;;0.60;;
75928;SDS011;64606;44.062;2.986;2023-11-22T01:05:47;1.85;;;0.90;;
75928;SDS011;64606;44.062;2.986;2023-11-22T01:08:13;3.95;;;0.90;;
75928;SDS011;64606;44.062;2.986;2023-11-22T01:29:01;3.00;;;0.65;;
75928;SDS011;64606;44.062;2.986;2023-11-22T01:31:27;3.05;;;0.88;;
75928;SDS011;64606;44.062;2.986;2023-11-22T01:33:54;2.67;;;0.60;;
75928;SDS011;64606;44.062;2.986;2023-11-22T01:36:20;1.40;;;0.50;;
75928;SDS011;64606;44.062;2.986;2023-11-22T01:38:46;1.08;;;0.70;;
75928;SDS011;64606;44.062;2.986;2023-11-22T01:41:13;3.45;;;0.60;;
75928;SDS011;64606;44.062;2.986;2023-11-22T01:43:39;2.05;;;0.57;;
75928;SDS011;64606;44.062;2.986;2023-11-22T01:46:07;1.15;;;0.55;;
75928;SDS011;64606;44.062;2.986;2023-11-22T01:48:33;3.08;;;0.60;;
75928;SDS011;64606;44.062;2.986;2023-11-22T01:51:01;1.83;;;0.60;;
75928;SDS011;64606;44.062;2.986;2023-11-22T01:53:27;2.33;;;0.60;;
75928;SDS011;64606;44.062;2.986;2023-11-22T01:55:54;0.75;;;0.60;;
75928;SDS011;64606;44.062;2.986;2023-11-22T01:58:21;3.67;;;0.75;;
75928;SDS011;64606;44.062;2.986;2023-11-22T02:00:51;1.70;;;0.70;;
75928;SDS011;64606;44.062;2.986;2023-11-22T02:03:18;1.42;;;0.68;;
75928;SDS011;64606;44.062;2.986;2023-11-22T02:05:44;1.15;;;0.50;;
75928;SDS011;64606;44.062;2.986;2023-11-22T02:08:11;0.68;;;0.55;;
75928;SDS011;64606;44.062;2.986;2023-11-22T02:10:37;1.55;;;0.52;;
75928;SDS011;64606;44.062;2.986;2023-11-22T02:13:04;0.70;;;0.50;;
75928;SDS011;64606;44.062;2.986;2023-11-22T02:15:33;2.45;;;0.40;;
75928;SDS011;64606;44.062;2.986;2023-11-22T02:17:59;1.00;;;0.50;;
75928;SDS011;64606;44.062;2.986;2023-11-22T02:20:25;1.85;;;0.40;;
75928;SDS011;64606;44.062;2.986;2023-11-22T02:22:51;1.20;;;0.50;;
75928;SDS011;64606;44.062;2.986;2023-11-22T02:25:18;1.40;;;0.60;;
75928;SDS011;64606;44.062;2.986;2023-11-22T02:27:45;1.35;;;0.40;;
75928;SDS011;64606;44.062;2.986;2023-11-22T02:30:11;0.90;;;0.30;;
75928;SDS011;64606;44.062;2.986;2023-11-22T02:32:37;0.80;;;0.40;;
75928;SDS011;64606;44.062;2.986;2023-11-22T02:35:04;2.03;;;0.30;;
75928;SDS011;64606;44.062;2.986;2023-11-22T02:37:33;0.55;;;0.30;;
75928;SDS011;64606;44.062;2.986;2023-11-22T02:40:02;0.70;;;0.30;;
75928;SDS011;64606;44.062;2.986;2023-11-22T02:42:30;0.77;;;0.30;;
75928;SDS011;64606;44.062;2.986;2023-11-22T02:44:57;1.17;;;0.30;;
75928;SDS011;64606;44.062;2.986;2023-11-22T02:47:23;0.35;;;0.30;;
75928;SDS011;64606;44.062;2.986;2023-11-22T02:49:49;1.20;;;0.30;;
75928;SDS011;64606;44.062;2.986;2023-11-22T02:52:15;2.15;;;0.30;;
75928;SDS011;64606;44.062;2.986;2023-11-22T02:54:44;1.65;;;0.30;;
75928;SDS011;64606;44.062;2.986;2023-11-22T02:57:14;0.52;;;0.40;;
75928;SDS011;64606;44.062;2.986;2023-11-22T02:59:43;1.52;;;0.47;;
75928;SDS011;64606;44.062;2.986;2023-11-22T03:02:10;0.98;;;0.40;;
75928;SDS011;64606;44.062;2.986;2023-11-22T03:04:36;0.40;;;0.40;;
75928;SDS011;64606;44.062;2.986;2023-11-22T03:07:03;0.80;;;0.38;;
75928;SDS011;64606;44.062;2.986;2023-11-22T03:09:31;1.08;;;0.60;;
75928;SDS011;64606;44.062;2.986;2023-11-22T03:11:57;1.00;;;0.45;;
75928;SDS011;64606;44.062;2.986;2023-11-22T03:14:24;1.30;;;0.63;;
75928;SDS011;64606;44.062;2.986;2023-11-22T03:16:50;1.83;;;0.40;;
75928;SDS011;64606;44.062;2.986;2023-11-22T03:19:16;1.95;;;0.40;;
75928;SDS011;64606;44.062;2.986;2023-11-22T03:21:44;4.60;;;0.40;;
75928;SDS011;64606;44.062;2.986;2023-11-22T03:24:10;0.70;;;0.40;;
75928;SDS011;64606;44.062;2.986;2023-11-22T03:26:37;0.60;;;0.50;;
75928;SDS011;64606;44.062;2.986;2023-11-22T03:29:04;1.85;;;0.50;;
75928;SDS011;64606;44.062;2.986;2023-11-22T03:31:30;1.30;;;0.50;;
75928;SDS011;64606;44.062;2.986;2023-11-22T03:33:56;2.35;;;0.80;;
75928;SDS011;64606;44.062;2.986;2023-11-22T03:36:23;2.53;;;0.50;;
75928;SDS011;64606;44.062;2.986;2023-11-22T03:38:50;1.25;;;0.70;;
75928;SDS011;64606;44.062;2.986;2023-11-22T03:41:16;1.67;;;0.63;;
75928;SDS011;64606;44.062;2.986;2023-11-22T03:43:43;1.80;;;1.33;;
75928;SDS011;64606;44.062;2.986;2023-11-22T03:46:09;0.88;;;0.63;;
75928;SDS011;64606;44.062;2.986;2023-11-22T03:48:36;1.17;;;0.70;;
75928;SDS011;64606;44.062;2.986;2023-11-22T03:51:02;1.23;;;0.85;;
75928;SDS011;64606;44.062;2.986;2023-11-22T03:53:28;1.98;;;1.00;;
75928;SDS011;64606;44.062;2.986;2023-11-22T03:55:55;4.60;;;2.03;;
75928;SDS011;64606;44.062;2.986;2023-11-22T03:58:21;1.88;;;1.10;;
75928;SDS011;64606;44.062;2.986;2023-11-22T04:00:47;3.47;;;1.33;;
75928;SDS011;64606;44.062;2.986;2023-11-22T04:03:13;1.33;;;0.80;;
75928;SDS011;64606;44.062;2.986;2023-11-22T04:05:39;0.80;;;0.60;;
75928;SDS011;64606;44.062;2.986;2023-11-22T04:08:07;1.63;;;0.60;;
75928;SDS011;64606;44.062;2.986;2023-11-22T04:10:33;1.23;;;0.73;;
75928;SDS011;64606;44.062;2.986;2023-11-22T04:13:00;1.92;;;1.00;;
75928;SDS011;64606;44.062;2.986;2023-11-22T04:15:26;4.78;;;1.63;;
75928;SDS011;64606;44.062;2.986;2023-11-22T04:17:52;4.10;;;1.05;;
75928;SDS011;64606;44.062;2.986;2023-11-22T04:20:21;1.90;;;0.60;;
75928;SDS011;64606;44.062;2.986;2023-11-22T04:22:47;1.45;;;0.65;;
75928;SDS011;64606;44.062;2.986;2023-11-22T04:25:14;1.75;;;0.70;;
75928;SDS011;64606;44.062;2.986;2023-11-22T04:27:40;1.40;;;0.80;;
75928;SDS011;64606;44.062;2.986;2023-11-22T04:30:07;1.23;;;0.80;;
75928;SDS011;64606;44.062;2.986;2023-11-22T04:32:39;2.50;;;1.13;;
75928;SDS011;64606;44.062;2.986;2023-11-22T04:35:06;8.57;;;2.03;;
75928;SDS011;64606;44.062;2.986;2023-11-22T04:37:33;3.17;;;1.50;;
75928;SDS011;64606;44.062;2.986;2023-11-22T04:39:59;1.90;;;1.10;;
75928;SDS011;64606;44.062;2.986;2023-11-22T04:42:26;2.38;;;0.88;;
75928;SDS011;64606;44.062;2.986;2023-11-22T04:44:53;3.40;;;1.60;;
75928;SDS011;64606;44.062;2.986;2023-11-22T04:47:19;2.80;;;1.30;;
75928;SDS011;64606;44.062;2.986;2023-11-22T04:49:48;1.45;;;1.10;;
75928;SDS011;64606;44.062;2.986;2023-11-22T04:52:14;4.00;;;1.13;;
75928;SDS011;64606;44.062;2.986;2023-11-22T04:54:41;3.00;;;1.10;;
75928;SDS011;64606;44.062;2.986;2023-11-22T04:57:07;3.17;;;1.20;;
75928;SDS011;64606;44.062;2.986;2023-11-22T04:59:33;6.38;;;1.45;;
75928;SDS011;64606;44.062;2.986;2023-11-22T05:01:59;1.73;;;0.80;;
75928;SDS011;64606;44.062;2.986;2023-11-22T05:04:25;3.33;;;1.35;;
75928;SDS011;64606;44.062;2.986;2023-11-22T05:06:52;2.90;;;1.48;;
75928;SDS011;64606;44.062;2.986;2023-11-22T05:09:18;2.03;;;1.20;;
75928;SDS011;64606;44.062;2.986;2023-11-22T05:11:45;3.00;;;1.15;;
75928;SDS011;64606;44.062;2.986;2023-11-22T05:14:11;1.95;;;0.90;;
75928;SDS011;64606;44.062;2.986;2023-11-22T05:16:38;4.07;;;1.35;;
75928;SDS011;64606;44.062;2.986;2023-11-22T05:19:04;2.30;;;1.10;;
75928;SDS011;64606;44.062;2.986;2023-11-22T05:21:31;3.22;;;1.00;;
75928;SDS011;64606;44.062;2.986;2023-11-22T05:23:57;1.55;;;0.85;;
75928;SDS011;64606;44.062;2.986;2023-11-22T05:26:24;2.97;;;1.20;;
75928;SDS011;64606;44.062;2.986;2023-11-22T05:28:50;8.23;;;1.38;;
75928;SDS011;64606;44.062;2.986;2023-11-22T05:31:19;1.83;;;1.08;;
75928;SDS011;64606;44.062;2.986;2023-11-22T05:33:45;1.90;;;1.20;;
75928;SDS011;64606;44.062;2.986;2023-11-22T05:36:11;2.83;;;0.90;;
75928;SDS011;64606;44.062;2.986;2023-11-22T05:38:37;1.85;;;1.10;;
75928;SDS011;64606;44.062;2.986;2023-11-22T05:41:04;2.05;;;1.08;;
75928;SDS011;64606;44.062;2.986;2023-11-22T05:43:30;1.83;;;1.20;;
75928;SDS011;64606;44.062;2.986;2023-11-22T05:45:56;2.63;;;1.00;;
75928;SDS011;64606;44.062;2.986;2023-11-22T05:48:22;1.48;;;0.98;;
75928;SDS011;64606;44.062;2.986;2023-11-22T05:50:48;1.80;;;1.20;;
75928;SDS011;64606;44.062;2.986;2023-11-22T05:53:15;1.95;;;0.88;;
75928;SDS011;64606;44.062;2.986;2023-11-22T05:55:47;1.50;;;1.10;;
75928;SDS011;64606;44.062;2.986;2023-11-22T05:58:14;2.35;;;1.00;;
75928;SDS011;64606;44.062;2.986;2023-11-22T06:00:44;2.03;;;1.40;;
75928;SDS011;64606;44.062;2.986;2023-11-22T06:03:10;2.15;;;1.10;;
75928;SDS011;64606;44.062;2.986;2023-11-22T06:05:36;1.80;;;1.42;;
75928;SDS011;64606;44.062;2.986;2023-11-22T06:08:02;2.10;;;1.23;;
75928;SDS011;64606;44.062;2.986;2023-11-22T06:10:29;2.70;;;1.10;;
75928;SDS011;64606;44.062;2.986;2023-11-22T06:12:55;2.25;;;0.90;;
75928;SDS011;64606;44.062;2.986;2023-11-22T06:15:21;3.85;;;1.05;;
75928;SDS011;64606;44.062;2.986;2023-11-22T06:17:48;2.42;;;0.90;;
75928;SDS011;64606;44.062;2.986;2023-11-22T06:20:15;1.67;;;1.02;;
75928;SDS011;64606;44.062;2.986;2023-11-22T06:22:42;1.73;;;1.05;;
75928;SDS011;64606;44.062;2.986;2023-11-22T06:25:08;1.92;;;1.27;;
75928;SDS011;64606;44.062;2.986;2023-11-22T06:27:35;1.90;;;1.02;;
75928;SDS011;64606;44.062;2.986;2023-11-22T06:30:02;2.13;;;1.30;;
75928;SDS011;64606;44.062;2.986;2023-11-22T06:32:28;5.32;;;1.60;;
75928;SDS011;64606;44.062;2.986;2023-11-22T06:34:54;3.72;;;1.00;;
75928;SDS011;64606;44.062;2.986;2023-11-22T06:37:20;1.00;;;0.90;;
75928;SDS011;64606;44.062;2.986;2023-11-22T06:39:46;2.15;;;1.20;;
75928;SDS011;64606;44.062;2.986;2023-11-22T06:42:12;1.77;;;1.10;;
75928;SDS011;64606;44.062;2.986;2023-11-22T06:44:39;2.35;;;1.20;;
75928;SDS011;64606;44.062;2.986;2023-11-22T06:47:05;2.83;;;1.40;;
75928;SDS011;64606;44.062;2.986;2023-11-22T06:49:32;4.20;;;1.80;;
75928;SDS011;64606;44.062;2.986;2023-11-22T06:51:59;7.85;;;3.10;;
75928;SDS011;64606;44.062;2.986;2023-11-22T06:54:25;5.10;;;2.72;;
75928;SDS011;64606;44.062;2.986;2023-11-22T06:56:51;3.38;;;1.92;;
75928;SDS011;64606;44.062;2.986;2023-11-22T06:59:18;3.72;;;1.60;;
75928;SDS011;64606;44.062;2.986;2023-11-22T07:01:44;2.53;;;1.65;;
75928;SDS011;64606;44.062;2.986;2023-11-22T07:04:10;5.72;;;1.35;;
75928;SDS011;64606;44.062;2.986;2023-11-22T07:06:37;3.28;;;1.60;;
75928;SDS011;64606;44.062;2.986;2023-11-22T07:09:03;3.25;;;1.35;;
75928;SDS011;64606;44.062;2.986;2023-11-22T07:11:29;3.40;;;1.58;;
75928;SDS011;64606;44.062;2.986;2023-11-22T07:13:56;3.08;;;1.40;;
75928;SDS011;64606;44.062;2.986;2023-11-22T07:16:25;2.78;;;1.73;;
75928;SDS011;64606;44.062;2.986;2023-11-22T07:18:51;2.30;;;1.60;;
75928;SDS011;64606;44.062;2.986;2023-11-22T07:21:18;3.22;;;1.30;;
75928;SDS011;64606;44.062;2.986;2023-11-22T07:23:45;2.13;;;1.30;;
75928;SDS011;64606;44.062;2.986;2023-11-22T07:26:11;1.85;;;1.20;;
75928;SDS011;64606;44.062;2.986;2023-11-22T07:28:41;2.92;;;1.23;;
75928;SDS011;64606;44.062;2.986;2023-11-22T07:31:08;2.90;;;1.23;;
75928;SDS011;64606;44.062;2.986;2023-11-22T07:33:34;4.95;;;1.67;;
75928;SDS011;64606;44.062;2.986;2023-11-22T07:36:00;2.70;;;1.30;;
75928;SDS011;64606;44.062;2.986;2023-11-22T07:38:28;2.85;;;1.30;;
75928;SDS011;64606;44.062;2.986;2023-11-22T07:40:57;1.65;;;1.10;;
75928;SDS011;64606;44.062;2.986;2023-11-22T07:43:23;2.63;;;1.58;;
75928;SDS011;64606;44.062;2.986;2023-11-22T07:45:49;2.35;;;1.30;;
75928;SDS011;64606;44.062;2.986;2023-11-22T07:48:16;3.15;;;1.48;;
75928;SDS011;64606;44.062;2.986;2023-11-22T07:50:42;3.42;;;1.60;;
75928;SDS011;64606;44.062;2.986;2023-11-22T07:53:10;2.88;;;1.05;;
75928;SDS011;64606;44.062;2.986;2023-11-22T07:55:37;2.85;;;1.35;;
75928;SDS011;64606;44.062;2.986;2023-11-22T07:58:03;5.03;;;1.55;;
75928;SDS011;64606;44.062;2.986;2023-11-22T08:00:35;2.20;;;1.33;;
75928;SDS011;64606;44.062;2.986;2023-11-22T08:03:02;3.55;;;1.10;;
75928;SDS011;64606;44.062;2.986;2023-11-22T08:05:31;2.50;;;1.17;;
75928;SDS011;64606;44.062;2.986;2023-11-22T08:08:04;1.60;;;1.10;;
75928;SDS011;64606;44.062;2.986;2023-11-22T08:10:34;1.55;;;1.00;;
75928;SDS011;64606;44.062;2.986;2023-11-22T08:13:00;1.23;;;0.95;;
75928;SDS011;64606;44.062;2.986;2023-11-22T08:15:28;2.38;;;0.95;;
75928;SDS011;64606;44.062;2.986;2023-11-22T08:17:56;1.98;;;0.85;;
75928;SDS011;64606;44.062;2.986;2023-11-22T08:20:23;1.48;;;0.93;;
75928;SDS011;64606;44.062;2.986;2023-11-22T08:22:50;1.60;;;0.98;;
75928;SDS011;64606;44.062;2.986;2023-11-22T08:25:16;1.67;;;0.70;;
75928;SDS011;64606;44.062;2.986;2023-11-22T08:27:43;1.23;;;0.73;;
75928;SDS011;64606;44.062;2.986;2023-11-22T08:30:10;1.52;;;1.05;;
75928;SDS011;64606;44.062;2.986;2023-11-22T08:32:43;1.75;;;0.93;;
75928;SDS011;64606;44.062;2.986;2023-11-22T08:35:12;1.10;;;0.90;;
75928;SDS011;64606;44.062;2.986;2023-11-22T08:37:39;1.65;;;1.02;;
75928;SDS011;64606;44.062;2.986;2023-11-22T08:40:07;1.83;;;0.95;;
75928;SDS011;64606;44.062;2.986;2023-11-22T08:42:34;2.20;;;1.05;;
75928;SDS011;64606;44.062;2.986;2023-11-22T08:45:04;1.33;;;0.77;;
75928;SDS011;64606;44.062;2.986;2023-11-22T08:47:30;2.78;;;1.10;;
75928;SDS011;64606;44.062;2.986;2023-11-22T08:49:56;1.15;;;0.80;;
75928;SDS011;64606;44.062;2.986;2023-11-22T08:52:24;1.98;;;0.80;;
75928;SDS011;64606;44.062;2.986;2023-11-22T08:54:50;2.45;;;0.90;;
75928;SDS011;64606;44.062;2.986;2023-11-22T08:57:17;2.25;;;1.50;;
75928;SDS011;64606;44.062;2.986;2023-11-22T08:59:43;2.45;;;1.08;;
75928;SDS011;64606;44.062;2.986;2023-11-22T09:02:09;3.38;;;1.25;;
75928;SDS011;64606;44.062;2.986;2023-11-22T09:04:37;3.25;;;1.60;;
75928;SDS011;64606;44.062;2.986;2023-11-22T09:07:06;2.17;;;1.13;;
75928;SDS011;64606;44.062;2.986;2023-11-22T09:09:32;1.65;;;1.10;;
75928;SDS011;64606;44.062;2.986;2023-11-22T09:12:00;2.30;;;1.30;;
75928;SDS011;64606;44.062;2.986;2023-11-22T09:14:26;1.00;;;0.80;;
75928;SDS011;64606;44.062;2.986;2023-11-22T09:16:53;1.25;;;0.80;;
75928;SDS011;64606;44.062;2.986;2023-11-22T09:19:23;1.77;;;1.10;;
75928;SDS011;64606;44.062;2.986;2023-11-22T09:21:50;2.08;;;1.10;;
75928;SDS011;64606;44.062;2.986;2023-11-22T09:24:17;2.67;;;1.10;;
75928;SDS011;64606;44.062;2.986;2023-11-22T09:26:45;3.03;;;1.17;;
75928;SDS011;64606;44.062;2.986;2023-11-22T09:29:11;1.92;;;0.98;;
75928;SDS011;64606;44.062;2.986;2023-11-22T09:31:40;5.03;;;3.05;;
75928;SDS011;64606;44.062;2.986;2023-11-22T09:34:11;7.28;;;3.25;;
75928;SDS011;64606;44.062;2.986;2023-11-22T09:36:38;6.28;;;3.45;;
75928;SDS011;64606;44.062;2.986;2023-11-22T09:39:04;3.03;;;1.88;;
75928;SDS011;64606;44.062;2.986;2023-11-22T09:41:34;5.13;;;2.72;;
75928;SDS011;64606;44.062;2.986;2023-11-22T09:44:00;3.33;;;2.28;;
75928;SDS011;64606;44.062;2.986;2023-11-22T09:46:26;2.75;;;1.50;;
75928;SDS011;64606;44.062;2.986;2023-11-22T09:48:54;1.23;;;1.05;;
75928;SDS011;64606;44.062;2.986;2023-11-22T09:51:26;3.20;;;1.08;;
75928;SDS011;64606;44.062;2.986;2023-11-22T09:53:55;3.13;;;1.15;;
75928;SDS011;64606;44.062;2.986;2023-11-22T09:56:29;2.30;;;1.30;;
75928;SDS011;64606;44.062;2.986;2023-11-22T09:58:58;2.22;;;1.20;;
75928;SDS011;64606;44.062;2.986;2023-11-22T10:01:25;1.98;;;1.30;;
75928;SDS011;64606;44.062;2.986;2023-11-22T10:03:54;1.42;;;1.08;;
75928;SDS011;64606;44.062;2.986;2023-11-22T10:06:21;1.17;;;1.08;;
75928;SDS011;64606;44.062;2.986;2023-11-22T10:08:47;3.13;;;1.30;;
75928;SDS011;64606;44.062;2.986;2023-11-22T10:11:16;1.77;;;1.10;;
75928;SDS011;64606;44.062;2.986;2023-11-22T10:13:43;1.88;;;1.27;;
75928;SDS011;64606;44.062;2.986;2023-11-22T10:16:11;2.90;;;1.45;;
75928;SDS011;64606;44.062;2.986;2023-11-22T10:18:44;2.22;;;1.20;;
75928;SDS011;64606;44.062;2.986;2023-11-22T10:21:21;2.97;;;1.10;;
75928;SDS011;64606;44.062;2.986;2023-11-22T10:23:47;1.10;;;1.00;;
75928;SDS011;64606;44.062;2.986;2023-11-22T10:26:13;2.33;;;1.13;;
75928;SDS011;64606;44.062;2.986;2023-11-22T10:28:41;1.40;;;0.80;;
75928;SDS011;64606;44.062;2.986;2023-11-22T10:31:08;2.13;;;1.73;;
75928;SDS011;64606;44.062;2.986;2023-11-22T10:33:42;1.55;;;1.15;;
75928;SDS011;64606;44.062;2.986;2023-11-22T10:36:08;1.67;;;1.10;;
75928;SDS011;64606;44.062;2.986;2023-11-22T10:38:35;1.33;;;0.90;;
75928;SDS011;64606;44.062;2.986;2023-11-22T10:41:04;3.25;;;1.80;;
75928;SDS011;64606;44.062;2.986;2023-11-22T10:43:32;2.13;;;1.42;;
75928;SDS011;64606;44.062;2.986;2023-11-22T10:46:03;2.67;;;1.20;;
75928;SDS011;64606;44.062;2.986;2023-11-22T10:48:35;1.98;;;1.45;;
75928;SDS011;64606;44.062;2.986;2023-11-22T10:51:02;3.08;;;1.00;;
75928;SDS011;64606;44.062;2.986;2023-11-22T10:53:32;2.67;;;1.30;;
75928;SDS011;64606;44.062;2.986;2023-11-22T10:56:03;1.33;;;0.90;;
75928;SDS011;64606;44.062;2.986;2023-11-22T10:58:31;2.40;;;1.13;;
75928;SDS011;64606;44.062;2.986;2023-11-22T11:00:59;2.78;;;0.98;;
75928;SDS011;64606;44.062;2.986;2023-11-22T11:03:28;1.88;;;1.30;;
75928;SDS011;64606;44.062;2.986;2023-11-22T11:06:03;1.67;;;1.05;;
75928;SDS011;64606;44.062;2.986;2023-11-22T11:08:30;1.00;;;0.75;;
75928;SDS011;64606;44.062;2.986;2023-11-22T11:10:56;2.20;;;0.80;;
75928;SDS011;64606;44.062;2.986;2023-11-22T11:13:23;2.25;;;1.27;;
75928;SDS011;64606;44.062;2.986;2023-11-22T11:15:50;1.55;;;0.98;;
75928;SDS011;64606;44.062;2.986;2023-11-22T11:18:17;1.38;;;1.25;;
75928;SDS011;64606;44.062;2.986;2023-11-22T11:20:51;1.42;;;1.08;;
75928;SDS011;64606;44.062;2.986;2023-11-22T11:23:21;1.90;;;0.98;;
75928;SDS011;64606;44.062;2.986;2023-11-22T11:25:48;1.45;;;0.90;;
75928;SDS011;64606;44.062;2.986;2023-11-22T11:28:15;1.08;;;0.90;;
75928;SDS011;64606;44.062;2.986;2023-11-22T11:36:27;3.60;;;1.70;;
75928;SDS011;64606;44.062;2.986;2023-11-22T11:38:57;4.00;;;1.17;;
75928;SDS011;64606;44.062;2.986;2023-11-22T11:41:28;1.50;;;1.00;;
75928;SDS011;64606;44.062;2.986;2023-11-22T11:43:56;2.13;;;1.17;;
75928;SDS011;64606;44.062;2.986;2023-11-22T11:46:25;0.50;;;0.45;;
75928;SDS011;64606;44.062;2.986;2023-11-22T11:48:53;1.45;;;0.80;;
75928;SDS011;64606;44.062;2.986;2023-11-22T11:51:23;2.88;;;1.05;;
75928;SDS011;64606;44.062;2.986;2023-11-22T11:53:50;1.10;;;0.80;;
75928;SDS011;64606;44.062;2.986;2023-11-22T11:56:17;2.17;;;1.30;;
75928;SDS011;64606;44.062;2.986;2023-11-22T12:02:35;0.77;;;0.60;;
75928;SDS011;64606;44.062;2.986;2023-11-22T12:05:01;1.60;;;0.80;;
75928;SDS011;64606;44.062;2.986;2023-11-22T12:07:54;1.10;;;0.80;;
75928;SDS011;64606;44.062;2.986;2023-11-22T12:10:24;2.45;;;0.52;;
75928;SDS011;64606;44.062;2.986;2023-11-22T12:12:52;3.80;;;0.70;;
75928;SDS011;64606;44.062;2.986;2023-11-22T12:15:18;1.50;;;0.88;;
75928;SDS011;64606;44.062;2.986;2023-11-22T12:17:50;0.80;;;0.50;;
75928;SDS011;64606;44.062;2.986;2023-11-22T12:20:17;0.70;;;0.50;;
75928;SDS011;64606;44.062;2.986;2023-11-22T12:22:49;1.23;;;0.60;;
75928;SDS011;64606;44.062;2.986;2023-11-22T12:25:16;0.95;;;0.80;;
75928;SDS011;64606;44.062;2.986;2023-11-22T12:27:43;1.33;;;0.60;;
75928;SDS011;64606;44.062;2.986;2023-11-22T12:30:28;1.30;;;0.63;;
75928;SDS011;64606;44.062;2.986;2023-11-22T12:32:56;0.65;;;0.57;;
75928;SDS011;64606;44.062;2.986;2023-11-22T12:35:23;0.55;;;0.55;;
75928;SDS011;64606;44.062;2.986;2023-11-22T12:37:49;1.20;;;1.00;;
75928;SDS011;64606;44.062;2.986;2023-11-22T12:40:16;2.08;;;1.38;;
75928;SDS011;64606;44.062;2.986;2023-11-22T12:42:52;2.55;;;1.00;;
75928;SDS011;64606;44.062;2.986;2023-11-22T12:45:21;1.50;;;0.90;;
75928;SDS011;64606;44.062;2.986;2023-11-22T12:47:49;1.05;;;0.80;;
75928;SDS011;64606;44.062;2.986;2023-11-22T12:50:34;1.77;;;0.93;;
75928;SDS011;64606;44.062;2.986;2023-11-22T12:55:42;1.92;;;0.70;;
75928;SDS011;64606;44.062;2.986;2023-11-22T12:58:09;0.45;;;0.45;;
75928;SDS011;64606;44.062;2.986;2023-11-22T13:00:35;0.70;;;0.40;;
75928;SDS011;64606;44.062;2.986;2023-11-22T13:03:01;2.03;;;0.50;;
75928;SDS011;64606;44.062;2.986;2023-11-22T13:05:28;1.10;;;0.80;;
75928;SDS011;64606;44.062;2.986;2023-11-22T13:07:54;0.60;;;0.45;;
75928;SDS011;64606;44.062;2.986;2023-11-22T13:10:20;0.50;;;0.50;;
75928;SDS011;64606;44.062;2.986;2023-11-22T13:12:51;3.47;;;0.65;;
75928;SDS011;64606;44.062;2.986;2023-11-22T13:15:20;0.68;;;0.60;;
75928;SDS011;64606;44.062;2.986;2023-11-22T13:17:49;1.02;;;0.70;;
75928;SDS011;64606;44.062;2.986;2023-11-22T13:23:19;1.60;;;0.50;;
75928;SDS011;64606;44.062;2.986;2023-11-22T13:25:45;0.88;;;0.70;;
75928;SDS011;64606;44.062;2.986;2023-11-22T13:28:11;1.73;;;1.20;;
75928;SDS011;64606;44.062;2.986;2023-11-22T13:30:38;0.75;;;0.70;;
75928;SDS011;64606;44.062;2.986;2023-11-22T13:33:04;1.35;;;0.80;;
75928;SDS011;64606;44.062;2.986;2023-11-22T13:35:30;0.88;;;0.70;;
75928;SDS011;64606;44.062;2.986;2023-11-22T13:38:00;2.50;;;0.60;;
75928;SDS011;64606;44.062;2.986;2023-11-22T13:40:27;1.08;;;0.77;;
75928;SDS011;64606;44.062;2.986;2023-11-22T13:42:57;2.90;;;0.95;;
75928;SDS011;64606;44.062;2.986;2023-11-22T13:45:23;1.23;;;1.00;;
75928;SDS011;64606;44.062;2.986;2023-11-22T13:47:50;2.95;;;1.42;;
75928;SDS011;64606;44.062;2.986;2023-11-22T13:50:29;2.67;;;1.50;;
75928;SDS011;64606;44.062;2.986;2023-11-22T13:52:56;3.67;;;1.52;;
75928;SDS011;64606;44.062;2.986;2023-11-22T13:55:23;1.35;;;0.95;;
75928;SDS011;64606;44.062;2.986;2023-11-22T13:57:54;1.45;;;1.08;;
75928;SDS011;64606;44.062;2.986;2023-11-22T14:00:21;1.58;;;0.90;;
75928;SDS011;64606;44.062;2.986;2023-11-22T14:02:48;0.80;;;0.70;;
75928;SDS011;64606;44.062;2.986;2023-11-22T14:05:16;3.67;;;0.77;;
75928;SDS011;64606;44.062;2.986;2023-11-22T14:07:42;1.00;;;0.80;;
75928;SDS011;64606;44.062;2.986;2023-11-22T14:10:09;2.10;;;1.48;;
75928;SDS011;64606;44.062;2.986;2023-11-22T14:12:36;1.55;;;0.82;;
75928;SDS011;64606;44.062;2.986;2023-11-22T14:15:03;1.77;;;1.23;;
75928;SDS011;64606;44.062;2.986;2023-11-22T14:17:30;1.85;;;1.25;;
75928;SDS011;64606;44.062;2.986;2023-11-22T14:19:56;1.50;;;0.93;;
75928;SDS011;64606;44.062;2.986;2023-11-22T14:22:23;1.30;;;0.90;;
75928;SDS011;64606;44.062;2.986;2023-11-22T14:24:49;1.30;;;1.00;;
75928;SDS011;64606;44.062;2.986;2023-11-22T14:27:16;1.15;;;0.80;;
75928;SDS011;64606;44.062;2.986;2023-11-22T14:29:42;5.28;;;2.45;;
75928;SDS011;64606;44.062;2.986;2023-11-22T14:32:10;2.08;;;1.30;;
75928;SDS011;64606;44.062;2.986;2023-11-22T14:34:36;0.73;;;0.68;;
75928;SDS011;64606;44.062;2.986;2023-11-22T14:37:03;1.27;;;1.00;;
75928;SDS011;64606;44.062;2.986;2023-11-22T14:39:30;4.10;;;1.50;;
75928;SDS011;64606;44.062;2.986;2023-11-22T14:41:58;3.15;;;1.60;;
75928;SDS011;64606;44.062;2.986;2023-11-22T14:44:24;2.60;;;1.35;;
75928;SDS011;64606;44.062;2.986;2023-11-22T14:46:50;2.10;;;1.23;;
75928;SDS011;64606;44.062;2.986;2023-11-22T14:49:17;3.72;;;1.58;;
75928;SDS011;64606;44.062;2.986;2023-11-22T14:51:44;3.53;;;2.30;;
75928;SDS011;64606;44.062;2.986;2023-11-22T14:54:10;5.43;;;3.10;;
75928;SDS011;64606;44.062;2.986;2023-11-22T14:56:36;5.47;;;3.08;;
75928;SDS011;64606;44.062;2.986;2023-11-22T14:59:04;8.13;;;4.20;;
75928;SDS011;64606;44.062;2.986;2023-11-22T15:01:31;9.98;;;4.43;;
75928;SDS011;64606;44.062;2.986;2023-11-22T15:03:57;4.57;;;1.92;;
75928;SDS011;64606;44.062;2.986;2023-11-22T15:06:23;3.65;;;1.70;;
75928;SDS011;64606;44.062;2.986;2023-11-22T15:08:49;1.80;;;1.30;;
75928;SDS011;64606;44.062;2.986;2023-11-22T15:11:18;3.03;;;1.80;;
75928;SDS011;64606;44.062;2.986;2023-11-22T15:13:44;5.03;;;2.15;;
75928;SDS011;64606;44.062;2.986;2023-11-22T15:16:11;4.25;;;2.25;;
75928;SDS011;64606;44.062;2.986;2023-11-22T15:18:40;4.57;;;2.70;;
75928;SDS011;64606;44.062;2.986;2023-11-22T15:21:06;5.93;;;3.17;;
75928;SDS011;64606;44.062;2.986;2023-11-22T15:23:33;4.60;;;2.20;;